Time;durP1;ratioP1;P1;durP2;ratioP2;P2;SDS_P1;SDS_P2;PMS_P1;PMS_P2;Temp;Humidity;BMP_temperature;BMP_pressure;BME280_temperature;BME280_humidity;BME280_pressure;Samples;Min_cycle;Max_cycle;Signal;HPM_P1;HPM_P2
2022/03/09 00:00:17;;;;;;;9.05;7.63;;;;;;;4.15;36.57;95852.91;4952194;29;20031;-73
2022/03/09 00:02:42;;;;;;;10.05;7.90;;;;;;;3.88;36.72;95807.31;4952575;28;20019;-73
2022/03/09 00:05:08;;;;;;;9.48;7.90;;;;;;;3.84;36.35;95795.69;4952966;28;20027;-72
2022/03/09 00:07:34;;;;;;;8.73;6.97;;;;;;;4.15;36.59;95854.75;4951604;29;20023;-73
2022/03/09 00:10:00;;;;;;;10.70;7.20;;;;;;;4.15;36.90;95857.41;4951389;29;20031;-75
2022/03/09 00:12:25;;;;;;;14.20;7.40;;;;;;;3.98;36.57;95841.63;4952592;29;20362;-74
2022/03/09 00:14:51;;;;;;;9.77;7.35;;;;;;;4.03;36.76;95851.44;4952282;28;20098;-74
2022/03/09 00:17:16;;;;;;;15.57;7.43;;;;;;;3.97;36.90;95853.22;4935800;29;20358;-75
2022/03/09 00:19:42;;;;;;;11.60;7.88;;;;;;;3.95;36.79;95851.88;4933588;29;20024;-72
2022/03/09 00:22:07;;;;;;;9.60;7.93;;;;;;;3.96;36.86;95853.47;4933178;29;20459;-74
2022/03/09 00:24:33;;;;;;;16.52;8.35;;;;;;;4.03;37.04;95873.28;4933519;29;20063;-73
2022/03/09 00:26:59;;;;;;;10.43;7.75;;;;;;;3.58;36.85;95802.44;4933548;29;20023;-72
2022/03/09 00:29:26;;;;;;;9.85;8.23;;;;;;;3.56;37.50;95804.53;4933157;29;20083;-72
2022/03/09 00:31:51;;;;;;;10.77;8.40;;;;;;;3.81;37.09;95854.84;4934100;29;20027;-74
2022/03/09 00:34:17;;;;;;;10.15;8.57;;;;;;;3.90;37.36;95873.66;4936752;29;20108;-74
2022/03/09 00:36:42;;;;;;;12.82;9.00;;;;;;;3.52;37.70;95834.97;4933275;29;20481;-74
2022/03/09 00:39:08;;;;;;;12.48;9.02;;;;;;;3.41;37.87;95809.59;4933253;29;20473;-73
2022/03/09 00:41:33;;;;;;;13.50;9.52;;;;;;;3.23;38.31;95792.25;4933284;29;20031;-72
2022/03/09 00:43:58;;;;;;;12.80;9.50;;;;;;;3.32;38.19;95809.97;4933534;29;20031;-72
2022/03/09 00:46:24;;;;;;;12.43;9.23;;;;;;;3.37;38.55;95833.72;4947115;29;20058;-73
2022/03/09 00:48:49;;;;;;;14.93;9.93;;;;;;;3.37;38.63;95832.94;4940398;29;20032;-71
2022/03/09 00:51:15;;;;;;;10.52;8.20;;;;;;;3.35;38.49;95835.00;4932118;29;20067;-72
2022/03/09 00:53:40;;;;;;;12.48;9.38;;;;;;;2.96;38.42;95785.00;4933275;29;20098;-72
2022/03/09 00:56:06;;;;;;;16.50;9.63;;;;;;;3.07;38.70;95802.53;4936678;29;20032;-72
2022/03/09 00:58:31;;;;;;;13.10;9.63;;;;;;;3.16;38.92;95807.38;4936779;29;20039;-72
2022/03/09 01:00:56;;;;;;;14.02;9.50;;;;;;;3.37;38.97;95846.88;4946721;29;20055;-73
2022/03/09 01:03:22;;;;;;;14.60;8.88;;;;;;;3.28;38.97;95845.72;4947972;29;20034;-74
2022/03/09 01:05:47;;;;;;;16.58;9.18;;;;;;;2.12;38.95;95671.28;4937105;29;20023;-73
2022/03/09 01:08:13;;;;;;;13.85;9.45;;;;;;;2.91;39.43;95808.56;4936931;29;20028;-72
2022/03/09 01:10:38;;;;;;;13.55;9.98;;;;;;;3.15;39.53;95829.44;4936425;29;20028;-72
2022/03/09 01:13:04;;;;;;;13.23;9.80;;;;;;;3.32;39.05;95882.81;4936565;29;20028;-72
2022/03/09 01:15:29;;;;;;;12.95;9.15;;;;;;;3.25;39.17;95848.00;4940933;29;20039;-74
2022/03/09 01:17:54;;;;;;;13.07;9.38;;;;;;;3.16;40.03;95837.09;4955676;29;20392;-73
2022/03/09 01:20:20;;;;;;;14.93;9.15;;;;;;;3.10;39.46;95827.53;4955516;28;20032;-73
2022/03/09 01:22:45;;;;;;;22.73;10.43;;;;;;;3.27;39.65;95851.19;4955651;28;20138;-74
2022/03/09 01:25:11;;;;;;;12.82;9.10;;;;;;;3.11;39.79;95837.81;4954614;28;20035;-72
2022/03/09 01:27:36;;;;;;;16.67;9.57;;;;;;;3.13;39.90;95835.75;4954424;29;20035;-72
2022/03/09 01:30:03;;;;;;;17.60;10.00;;;;;;;3.22;39.83;95849.28;4954823;29;20038;-72
2022/03/09 01:32:28;;;;;;;17.77;10.68;;;;;;;3.03;39.96;95819.81;4958761;28;20054;-74
2022/03/09 01:34:54;;;;;;;15.27;9.93;;;;;;;2.84;39.90;95792.97;4936576;29;20075;-74
2022/03/09 01:37:19;;;;;;;14.98;10.27;;;;;;;3.16;39.86;95847.59;4919819;29;20027;-72
2022/03/09 01:39:45;;;;;;;19.23;10.52;;;;;;;2.94;40.30;95813.38;4935246;29;20031;-73
2022/03/09 01:42:10;;;;;;;16.23;9.40;;;;;;;3.03;40.36;95829.53;4919404;29;20095;-74
2022/03/09 01:44:36;;;;;;;14.73;8.98;;;;;;;2.59;40.11;95758.41;4936361;29;20036;-72
2022/03/09 01:47:01;;;;;;;14.10;9.70;;;;;;;3.09;40.58;95842.50;4951620;28;20059;-72
2022/03/09 01:49:27;;;;;;;16.63;10.00;;;;;;;3.10;40.01;95843.31;4955252;28;20058;-72
2022/03/09 01:51:58;;;;;;;15.82;10.85;;;;;;;2.82;40.33;95802.16;4955239;29;20027;-73
2022/03/09 01:54:24;;;;;;;15.00;10.07;;;;;;;2.59;39.96;95771.56;4938171;29;20097;-73
2022/03/09 01:56:50;;;;;;;15.48;10.35;;;;;;;2.98;40.40;95829.47;4955257;28;20038;-73
2022/03/09 01:59:16;;;;;;;13.02;9.88;;;;;;;2.94;40.79;95831.75;4955131;29;20038;-72
2022/03/09 02:01:43;;;;;;;15.75;9.98;;;;;;;2.91;40.59;95831.44;4954882;29;20503;-72
2022/03/09 02:04:09;;;;;;;15.52;10.05;;;;;;;2.65;41.05;95799.50;4937894;29;20468;-72
2022/03/09 02:06:36;;;;;;;13.55;9.63;;;;;;;2.59;41.03;95788.09;4954707;28;20114;-72
2022/03/09 02:11:47;;;;;;;11.43;9.38;;;;;;;2.55;40.99;95789.59;4955503;29;20067;-72
2022/03/09 02:14:45;;;;;;;12.20;9.82;;;;;;;2.79;41.60;95831.50;4954779;28;20023;-72
2022/03/09 02:17:15;;;;;;;14.43;10.20;;;;;;;2.65;41.23;95824.97;4937446;29;20042;-74
2022/03/09 02:19:44;;;;;;;12.70;9.70;;;;;;;2.69;41.48;95837.38;4919205;29;20088;-74
2022/03/09 02:22:19;;;;;;;14.65;10.00;;;;;;;2.65;41.31;95840.72;4935595;29;20031;-74
2022/03/09 02:24:48;;;;;;;17.65;9.40;;;;;;;2.49;41.68;95840.44;4935796;29;20163;-74
2022/03/09 02:27:14;;;;;;;14.57;9.13;;;;;;;2.31;42.27;95822.28;4934504;29;20150;-73
2022/03/09 02:29:40;;;;;;;15.63;9.90;;;;;;;2.48;41.98;95824.94;4935516;29;20385;-72
2022/03/09 02:32:06;;;;;;;17.92;9.93;;;;;;;2.57;41.50;95845.34;4950905;28;20027;-73
2022/03/09 02:34:32;;;;;;;14.45;9.75;;;;;;;2.40;42.06;95815.59;4937494;29;20034;-74
2022/03/09 02:36:57;;;;;;;13.10;9.55;;;;;;;2.46;41.76;95829.63;4954636;29;20031;-73
2022/03/09 02:39:24;;;;;;;14.02;9.70;;;;;;;2.19;41.94;95787.38;4954451;29;20469;-73
2022/03/09 02:41:49;;;;;;;15.48;8.73;;;;;;;2.00;41.85;95750.06;4954498;29;20039;-73
2022/03/09 02:44:15;;;;;;;11.63;8.50;;;;;;;2.09;41.70;95765.16;4954483;28;20032;-73
2022/03/09 02:46:40;;;;;;;13.35;8.88;;;;;;;2.11;41.94;95772.03;4954102;29;20484;-73
2022/03/09 02:49:06;;;;;;;15.63;9.52;;;;;;;2.47;42.51;95818.88;4954213;29;20027;-73
2022/03/09 02:51:32;;;;;;;17.75;10.40;;;;;;;2.52;41.99;95834.75;4952986;29;20035;-74
2022/03/09 02:53:58;;;;;;;18.90;10.63;;;;;;;2.52;41.88;95832.09;4954515;28;20073;-74
2022/03/09 02:56:23;;;;;;;17.33;10.18;;;;;;;2.41;42.09;95821.66;4954346;29;20027;-73
2022/03/09 02:58:49;;;;;;;27.27;13.55;;;;;;;2.36;42.53;95821.59;4952841;29;20392;-74
2022/03/09 03:01:14;;;;;;;26.25;12.70;;;;;;;2.43;42.42;95820.38;4952433;28;20108;-73
2022/03/09 03:03:41;;;;;;;21.23;11.93;;;;;;;2.49;41.96;95824.69;4954125;28;20034;-73
2022/03/09 03:06:07;;;;;;;21.98;11.18;;;;;;;2.01;41.63;95760.31;4954229;29;20530;-73
2022/03/09 03:08:33;;;;;;;29.13;11.93;;;;;;;2.36;42.22;95817.13;4936777;29;20075;-73
2022/03/09 03:11:00;;;;;;;17.02;11.07;;;;;;;1.85;42.08;95741.91;4953932;29;20027;-74
2022/03/09 03:13:25;;;;;;;25.92;12.25;;;;;;;2.36;41.97;95817.13;4954000;28;20110;-74
2022/03/09 03:15:50;;;;;;;19.20;11.77;;;;;;;1.77;42.14;95724.69;4952858;28;20106;-74
2022/03/09 03:18:16;;;;;;;26.17;11.82;;;;;;;2.25;42.11;95795.16;4951662;28;20122;-74
2022/03/09 03:20:41;;;;;;;20.30;11.02;;;;;;;2.40;42.52;95831.34;4952090;29;20110;-74
2022/03/09 03:23:07;;;;;;;24.13;11.55;;;;;;;2.03;42.84;95776.59;4953370;28;20027;-74
2022/03/09 03:25:32;;;;;;;16.30;11.50;;;;;;;2.38;42.66;95835.25;4953338;29;20373;-73
2022/03/09 03:27:58;;;;;;;29.65;12.45;;;;;;;2.12;42.51;95803.28;4952163;28;20071;-74
2022/03/09 03:30:23;;;;;;;18.90;11.13;;;;;;;1.72;42.54;95742.97;4952488;28;20500;-74
2022/03/09 03:32:48;;;;;;;20.60;11.43;;;;;;;1.90;42.96;95771.66;4953504;28;20031;-74
2022/03/09 03:35:14;;;;;;;21.58;11.07;;;;;;;2.13;42.91;95815.38;4936030;29;20540;-74
2022/03/09 03:37:42;;;;;;;16.85;10.52;;;;;;;2.32;43.31;95855.38;4953093;29;20031;-73
2022/03/09 03:40:09;;;;;;;18.92;11.30;;;;;;;2.32;42.77;95852.75;4953093;28;20023;-73
2022/03/09 03:42:34;;;;;;;20.25;11.10;;;;;;;2.19;42.94;95847.75;4953033;28;20035;-74
2022/03/09 03:44:59;;;;;;;27.90;11.48;;;;;;;2.33;42.85;95870.09;4953081;29;20039;-73
2022/03/09 03:47:25;;;;;;;18.98;11.00;;;;;;;2.28;42.91;95865.53;4952537;29;20523;-74
2022/03/09 03:49:51;;;;;;;20.55;10.95;;;;;;;2.31;43.04;95880.03;4952657;29;20413;-73
2022/03/09 03:52:16;;;;;;;18.95;10.65;;;;;;;2.27;43.00;95866.56;4952897;28;20047;-73
2022/03/09 03:54:41;;;;;;;22.98;10.77;;;;;;;2.25;42.80;95865.19;4952901;29;20031;-73
2022/03/09 03:57:07;;;;;;;15.20;10.13;;;;;;;2.34;43.17;95876.91;4953093;29;20086;-72
2022/03/09 03:59:33;;;;;;;16.75;10.90;;;;;;;1.61;43.50;95767.41;4952789;29;20110;-72
2022/03/09 04:01:59;;;;;;;20.20;10.95;;;;;;;2.27;43.39;95873.66;4951893;28;20039;-72
2022/03/09 04:04:24;;;;;;;15.30;10.27;;;;;;;2.04;43.24;95841.19;4952812;29;20040;-73
2022/03/09 04:06:50;;;;;;;33.70;18.25;;;;;;;2.25;43.46;95868.63;4952843;28;20043;-75
2022/03/09 04:09:16;;;;;;;14.48;11.55;;;;;;;2.35;43.06;95883.75;4952684;29;20110;-72
2022/03/09 04:11:41;;;;;;;17.83;11.98;;;;;;;2.09;43.67;95849.16;4952683;28;20094;-74
2022/03/09 04:14:06;;;;;;;17.73;11.88;;;;;;;1.93;43.41;95834.13;4952683;28;20106;-74
2022/03/09 04:16:32;;;;;;;18.38;12.10;;;;;;;1.88;43.30;95828.78;4952291;28;20121;-73
2022/03/09 04:18:57;;;;;;;26.73;11.90;;;;;;;1.85;43.57;95831.91;4951483;29;20023;-73
2022/03/09 04:21:23;;;;;;;21.70;11.73;;;;;;;2.27;43.67;95911.19;4952533;28;20495;-73
2022/03/09 04:23:48;;;;;;;17.83;12.07;;;;;;;2.11;43.60;95882.25;4952689;28;20560;-74
2022/03/09 04:26:13;;;;;;;23.90;11.70;;;;;;;2.09;43.88;95885.09;4952672;29;20032;-73
2022/03/09 04:28:39;;;;;;;19.25;11.20;;;;;;;2.02;43.39;95885.22;4951252;28;20126;-73
2022/03/09 04:31:04;;;;;;;21.92;12.40;;;;;;;2.04;43.91;95893.66;4955814;28;20031;-73
2022/03/09 04:33:29;;;;;;;18.50;11.60;;;;;;;1.89;43.94;95864.47;4956216;28;20035;-75
2022/03/09 04:35:55;;;;;;;20.35;11.52;;;;;;;1.79;43.84;95857.22;4956390;28;20516;-74
2022/03/09 04:38:20;;;;;;;22.48;11.20;;;;;;;2.08;44.07;95894.78;4956616;29;20031;-74
2022/03/09 04:40:46;;;;;;;15.23;9.85;;;;;;;2.06;44.00;95904.75;4955153;29;20063;-73
2022/03/09 04:43:11;;;;;;;18.10;10.93;;;;;;;2.19;43.82;95924.66;4956517;28;20035;-73
2022/03/09 04:45:36;;;;;;;17.73;10.75;;;;;;;2.08;44.06;95913.16;4956310;28;20027;-73
2022/03/09 04:48:02;;;;;;;20.08;10.95;;;;;;;2.06;44.00;95901.31;4954485;29;20039;-73
2022/03/09 04:50:28;;;;;;;17.20;11.38;;;;;;;1.87;43.88;95873.63;4938893;29;20082;-73
2022/03/09 04:52:53;;;;;;;22.35;11.38;;;;;;;2.02;43.83;95910.69;4939483;29;20464;-73
2022/03/09 04:55:18;;;;;;;22.30;11.65;;;;;;;1.95;44.08;95895.06;4956520;29;20035;-73
2022/03/09 04:57:44;;;;;;;18.60;11.30;;;;;;;1.79;44.16;95875.59;4956371;29;20034;-75
2022/03/09 05:00:10;;;;;;;17.30;10.57;;;;;;;2.04;43.99;95919.09;4955800;28;20035;-73
2022/03/09 05:02:35;;;;;;;15.43;10.35;;;;;;;1.61;43.76;95867.03;4955400;28;20388;-74
2022/03/09 05:05:01;;;;;;;19.40;10.40;;;;;;;1.62;44.54;95863.38;4955752;29;20484;-72
2022/03/09 05:07:27;;;;;;;14.48;9.98;;;;;;;1.36;44.56;95849.72;4938763;29;20039;-72
2022/03/09 05:09:53;;;;;;;20.23;11.48;;;;;;;1.62;44.62;95892.22;4955641;28;20088;-73
2022/03/09 05:12:18;;;;;;;14.43;10.73;;;;;;;1.81;44.55;95920.72;4955538;28;20468;-73
2022/03/09 05:14:44;;;;;;;16.40;10.68;;;;;;;1.70;44.41;95915.50;4955566;28;20085;-72
2022/03/09 05:17:09;;;;;;;18.15;11.10;;;;;;;1.62;44.63;95905.34;4955594;29;20135;-73
2022/03/09 05:19:34;;;;;;;16.65;10.65;;;;;;;1.44;44.36;95872.19;4954324;29;20039;-75
2022/03/09 05:22:00;;;;;;;28.23;10.70;;;;;;;1.71;44.12;95919.72;4955603;28;20035;-74
2022/03/09 05:24:26;;;;;;;17.77;11.13;;;;;;;1.49;44.48;95894.06;4955940;29;20023;-72
2022/03/09 05:26:51;;;;;;;26.73;10.38;;;;;;;1.41;44.52;95881.28;4954500;29;20027;-71
2022/03/09 05:29:16;;;;;;;16.52;10.82;;;;;;;1.64;44.55;95921.63;4938288;29;20101;-74
2022/03/09 05:31:44;;;;;;;16.00;10.23;;;;;;;1.69;44.14;95932.25;4937895;28;20111;-74
2022/03/09 05:34:10;;;;;;;15.88;9.75;;;;;;;1.76;44.44;95943.44;4955537;29;20027;-73
2022/03/09 05:36:36;;;;;;;13.93;10.23;;;;;;;1.45;44.61;95895.53;4955314;29;20031;-73
2022/03/09 05:39:02;;;;;;;14.18;9.88;;;;;;;1.74;44.56;95941.06;4937749;29;20024;-74
2022/03/09 05:41:28;;;;;;;14.13;9.15;;;;;;;1.23;44.45;95860.44;4936824;28;20027;-74
2022/03/09 05:43:53;;;;;;;12.75;9.25;;;;;;;1.90;44.15;95970.25;4953895;28;20376;-73
2022/03/09 05:46:18;;;;;;;15.75;9.77;;;;;;;1.75;44.20;95933.97;4954771;29;20031;-72
2022/03/09 05:48:44;;;;;;;16.92;10.18;;;;;;;1.98;43.80;95962.00;4954583;29;20680;-72
2022/03/09 05:51:10;;;;;;;14.80;9.30;;;;;;;1.93;43.94;95954.81;4937624;29;20031;-73
2022/03/09 05:53:36;;;;;;;16.77;10.75;;;;;;;2.01;44.15;95962.34;4954919;28;20031;-73
2022/03/09 05:56:02;;;;;;;17.05;10.30;;;;;;;1.78;43.97;95915.94;4954880;29;20091;-71
2022/03/09 05:58:27;;;;;;;18.40;10.38;;;;;;;1.81;44.05;95915.50;4937443;29;20031;-74
2022/03/09 06:00:53;;;;;;;15.23;9.25;;;;;;;1.44;44.67;95927.25;4937312;29;20027;-73
2022/03/09 06:03:18;;;;;;;19.90;9.75;;;;;;;1.28;44.96;95908.53;4946366;28;20063;-74
2022/03/09 06:05:43;;;;;;;15.85;9.35;;;;;;;1.72;44.57;95923.94;4935900;29;20035;-73
2022/03/09 06:08:09;;;;;;;16.42;10.18;;;;;;;2.05;44.13;95953.00;4934404;29;20114;-73
2022/03/09 06:10:34;;;;;;;17.05;9.60;;;;;;;1.95;43.82;95920.50;4918071;29;20028;-73
2022/03/09 06:13:00;;;;;;;13.13;9.82;;;;;;;1.95;43.46;95921.31;4935045;29;20043;-73
2022/03/09 06:15:25;;;;;;;21.80;10.15;;;;;;;2.15;43.46;95938.47;4935237;29;20047;-74
2022/03/09 06:17:51;;;;;;;15.02;9.55;;;;;;;2.12;43.51;95931.88;4948694;29;20039;-73
2022/03/09 06:20:18;;;;;;;17.67;10.05;;;;;;;2.30;43.18;95958.00;4954287;29;20488;-74
2022/03/09 06:22:45;;;;;;;22.13;10.88;;;;;;;1.69;43.20;95858.81;4936889;29;20114;-73
2022/03/09 06:25:11;;;;;;;16.98;9.82;;;;;;;2.44;43.17;95961.13;4954209;29;20401;-72
2022/03/09 06:27:50;;;;;;;17.50;9.40;;;;;;;2.33;43.13;95938.34;4936961;28;20027;-73
2022/03/09 06:30:16;;;;;;;13.00;8.68;;;;;;;2.30;42.77;95920.41;4936285;29;20066;-73
2022/03/09 06:32:43;;;;;;;17.13;9.25;;;;;;;1.92;42.70;95845.66;4953390;29;20035;-72
2022/03/09 06:35:10;;;;;;;15.25;9.10;;;;;;;2.33;42.31;95915.50;4936812;29;20122;-77
2022/03/09 06:37:36;;;;;;;13.32;8.90;;;;;;;2.18;42.17;95885.53;4954352;29;20070;-71
2022/03/09 06:40:04;;;;;;;14.10;9.43;;;;;;;2.85;41.95;95960.09;4936730;29;20031;-74
2022/03/09 06:42:29;;;;;;;17.52;8.77;;;;;;;2.95;42.01;95967.38;4935215;29;20928;-74
2022/03/09 06:44:55;;;;;;;14.18;9.05;;;;;;;1.94;41.51;95799.00;4952639;28;20041;-70
2022/03/09 06:47:21;;;;;;;16.92;8.45;;;;;;;2.85;41.59;95956.69;4953581;28;20031;-68
2022/03/09 06:49:47;;;;;;;18.83;9.32;;;;;;;2.26;41.24;95858.94;4934744;29;20028;-71
2022/03/09 06:52:13;;;;;;;13.10;8.55;;;;;;;3.08;41.18;95967.09;4942325;28;20031;-69
2022/03/09 06:54:38;;;;;;;20.97;9.00;;;;;;;3.24;41.06;95964.72;4953206;29;20031;-70
2022/03/09 06:57:04;;;;;;;16.42;9.40;;;;;;;2.99;41.05;95900.16;4953589;29;20233;-68
2022/03/09 06:59:30;;;;;;;18.73;8.77;;;;;;;3.21;40.55;95931.00;4936590;29;20095;-70
2022/03/09 07:01:55;;;;;;;14.02;9.25;;;;;;;2.76;40.14;95840.66;4952648;28;20039;-70
2022/03/09 07:04:21;;;;;;;14.00;9.80;;;;;;;3.73;40.13;95955.25;4959443;28;20033;-68
2022/03/09 07:06:46;;;;;;;15.45;8.95;;;;;;;3.13;40.08;95848.09;4936001;29;20046;-73
2022/03/09 07:09:12;;;;;;;16.55;8.98;;;;;;;3.42;39.83;95885.59;4952903;28;20046;-79
2022/03/09 07:11:38;;;;;;;16.05;10.00;;;;;;;3.69;40.04;95946.25;4954616;28;20073;-80
2022/03/09 07:14:04;;;;;;;15.60;9.93;;;;;;;3.70;39.69;95962.84;4954663;29;20023;-78
2022/03/09 07:16:30;;;;;;;11.73;9.50;;;;;;;3.54;39.49;95944.19;4954213;29;20037;-78
2022/03/09 07:18:56;;;;;;;11.68;9.20;;;;;;;3.24;38.65;95880.59;4954614;28;20353;-78
2022/03/09 07:21:21;;;;;;;11.20;9.20;;;;;;;3.58;39.25;95958.47;4954104;28;20125;-78
2022/03/09 07:23:47;;;;;;;12.05;8.68;;;;;;;3.84;38.82;95916.75;4952653;28;20114;-69
2022/03/09 07:26:13;;;;;;;14.15;8.60;;;;;;;4.58;38.18;96001.47;4952772;29;20031;-66
2022/03/09 07:28:38;;;;;;;15.90;8.85;;;;;;;3.86;37.47;95820.72;4952363;29;20038;-68
2022/03/09 07:31:04;;;;;;;14.40;8.40;;;;;;;4.24;37.48;95866.44;4952587;28;20106;-68
2022/03/09 07:33:29;;;;;;;10.63;9.52;;;;;;;4.25;37.28;95833.81;4952065;29;20143;-68
2022/03/09 07:35:56;;;;;;;12.98;9.18;;;;;;;5.11;37.21;95951.69;4941817;28;20102;-67
2022/03/09 07:38:23;;;;;;;14.75;9.55;;;;;;;5.00;36.96;95910.44;4952244;28;20431;-67
2022/03/09 07:40:48;;;;;;;16.65;9.27;;;;;;;5.30;36.45;95944.22;4952155;29;20042;-69
2022/03/09 07:43:13;;;;;;;11.65;9.10;;;;;;;5.63;36.05;95974.84;4953445;28;20055;-65
2022/03/09 07:45:39;;;;;;;11.80;9.10;;;;;;;5.72;36.18;95976.75;4953776;29;20039;-65
2022/03/09 07:48:04;;;;;;;15.30;9.25;;;;;;;5.45;35.47;95928.53;4953402;29;20081;-66
2022/03/09 07:50:30;;;;;;;17.05;9.02;;;;;;;5.28;35.67;95927.88;4953369;29;20039;-68
2022/03/09 07:52:56;;;;;;;15.43;9.38;;;;;;;5.93;35.79;95976.94;4953435;28;20071;-69
2022/03/09 07:55:21;;;;;;;12.05;9.05;;;;;;;5.91;35.15;95990.41;4953620;28;20027;-69
2022/03/09 07:57:47;;;;;;;13.40;9.50;;;;;;;6.25;35.50;95990.91;4953604;29;20035;-67
2022/03/09 08:00:13;;;;;;;16.40;9.73;;;;;;;5.64;35.21;95876.16;4936067;29;20023;-69
2022/03/09 08:02:40;;;;;;;13.20;9.10;;;;;;;6.55;34.30;95992.09;4935925;29;20042;-70
2022/03/09 08:05:06;;;;;;;13.07;9.23;;;;;;;6.04;34.48;95911.78;4952972;28;20106;-68
2022/03/09 08:07:32;;;;;;;17.08;9.43;;;;;;;6.57;34.30;95968.88;4953584;28;20221;-70
2022/03/09 08:09:57;;;;;;;14.30;9.48;;;;;;;6.91;34.33;96021.34;4952360;29;20069;-71
2022/03/09 08:12:23;;;;;;;10.30;9.18;;;;;;;6.57;33.74;95949.56;4953381;28;20364;-71
2022/03/09 08:14:49;;;;;;;14.98;9.25;;;;;;;6.30;33.28;95910.09;4953493;29;20096;-68
2022/03/09 08:17:14;;;;;;;14.65;9.10;;;;;;;6.35;33.67;95881.06;4953267;28;20027;-69
2022/03/09 08:19:40;;;;;;;16.25;10.10;;;;;;;7.03;33.55;95998.13;4953030;29;20034;-68
2022/03/09 08:22:07;;;;;;;11.60;9.60;;;;;;;7.32;33.02;96017.00;4953101;28;20035;-71
2022/03/09 08:24:33;;;;;;;10.40;9.18;;;;;;;7.47;32.56;96018.88;4953511;28;20023;-67
2022/03/09 08:26:59;;;;;;;15.68;10.18;;;;;;;7.30;32.91;95987.34;4953360;29;20055;-68
2022/03/09 08:29:25;;;;;;;12.30;8.63;;;;;;;7.53;31.93;96023.13;4953217;29;20094;-69
2022/03/09 08:31:51;;;;;;;11.95;8.68;;;;;;;6.97;32.33;95914.53;4952908;28;20031;-70
2022/03/09 08:34:16;;;;;;;12.40;8.48;;;;;;;6.89;31.21;95905.25;4935952;29;20023;-72
2022/03/09 08:36:42;;;;;;;10.70;9.00;;;;;;;7.83;31.25;96017.06;4934412;29;20040;-74
2022/03/09 08:39:07;;;;;;;14.48;9.07;;;;;;;7.97;31.45;96018.13;4934391;29;20036;-73
2022/03/09 08:41:32;;;;;;;15.57;10.07;;;;;;;7.94;31.41;96008.06;4933891;29;20035;-72
2022/03/09 08:43:58;;;;;;;11.88;9.15;;;;;;;6.69;31.29;95990.59;4917329;29;20031;-72
2022/03/09 08:46:23;;;;;;;11.43;9.23;;;;;;;7.12;31.86;96025.69;4917152;29;20035;-72
2022/03/09 08:48:49;;;;;;;14.40;10.27;;;;;;;7.63;31.54;95986.09;4928917;29;20502;-73
2022/03/09 08:51:17;;;;;;;17.80;10.45;;;;;;;8.16;31.37;96012.28;4956562;28;20031;-72
2022/03/09 08:53:43;;;;;;;17.38;9.57;;;;;;;7.95;31.16;95958.53;4934226;29;20118;-74
2022/03/09 08:56:08;;;;;;;16.38;9.77;;;;;;;8.19;30.77;95969.34;4934027;29;20118;-72
2022/03/09 08:58:36;;;;;;;16.35;10.13;;;;;;;8.53;30.50;95999.50;4934124;29;20026;-73
2022/03/09 09:01:03;;;;;;;11.98;8.82;;;;;;;8.45;30.09;95964.81;4933973;29;20028;-72
2022/03/09 09:03:29;;;;;;;11.43;9.55;;;;;;;8.67;29.68;95999.75;4946302;29;20027;-73
2022/03/09 09:05:54;;;;;;;11.50;9.27;;;;;;;8.54;29.25;95984.41;4951621;28;20026;-71
2022/03/09 09:08:20;;;;;;;11.88;8.80;;;;;;;8.83;29.71;95995.19;4953180;29;20037;-70
2022/03/09 09:10:45;;;;;;;17.83;9.27;;;;;;;9.00;29.23;95998.28;4952798;28;20381;-74
2022/03/09 09:13:11;;;;;;;12.60;8.50;;;;;;;9.23;28.74;96014.66;4952933;29;20023;-71
2022/03/09 09:15:37;;;;;;;11.88;8.52;;;;;;;9.18;28.99;96004.06;4954058;28;20023;-71
2022/03/09 09:18:04;;;;;;;11.00;9.05;;;;;;;9.38;28.40;96020.66;4956155;28;20764;-71
2022/03/09 09:20:29;;;;;;;11.90;9.27;;;;;;;9.24;27.56;95979.06;4938492;29;20027;-72
2022/03/09 09:22:56;;;;;;;13.18;8.80;;;;;;;9.29;27.77;95977.16;4956266;28;20042;-70
2022/03/09 09:25:24;;;;;;;11.02;8.98;;;;;;;9.56;27.05;96005.16;4956272;29;20027;-74
2022/03/09 09:27:50;;;;;;;10.55;8.52;;;;;;;9.67;26.93;95998.69;4956426;29;20480;-74
2022/03/09 09:30:17;;;;;;;9.80;8.80;;;;;;;9.49;27.37;95967.50;4955978;29;20032;-71
2022/03/09 09:32:42;;;;;;;16.20;9.10;;;;;;;9.00;26.54;95958.47;4955683;28;20027;-71
2022/03/09 09:35:08;;;;;;;16.30;9.60;;;;;;;8.99;26.93;95972.03;4955673;29;20031;-71
2022/03/09 09:37:34;;;;;;;15.77;8.63;;;;;;;9.60;26.73;95977.75;4954538;29;20023;-70
2022/03/09 09:39:59;;;;;;;12.20;9.27;;;;;;;9.92;26.93;95994.25;4955746;29;20027;-68
2022/03/09 09:42:30;;;;;;;13.05;9.27;;;;;;;10.06;26.18;95988.03;4954245;28;20027;-70
2022/03/09 09:45:00;;;;;;;14.33;9.50;;;;;;;10.00;26.50;95980.38;4955737;29;20027;-70
2022/03/09 09:47:32;;;;;;;11.25;9.43;;;;;;;9.96;25.24;95987.31;4955186;29;20530;-71
2022/03/09 09:49:58;;;;;;;9.85;8.85;;;;;;;10.12;25.90;95976.28;4937955;29;20119;-70
2022/03/09 09:52:29;;;;;;;14.75;8.40;;;;;;;10.34;25.49;96005.09;4953865;28;20110;-71
2022/03/09 09:54:57;;;;;;;12.90;8.93;;;;;;;10.57;25.89;96002.72;4955503;28;20023;-70
2022/03/09 09:57:23;;;;;;;9.70;8.43;;;;;;;10.30;25.05;95956.19;4955573;28;20046;-70
2022/03/09 09:59:49;;;;;;;14.27;8.63;;;;;;;10.19;24.22;95943.28;4955561;29;20024;-70
2022/03/09 10:02:15;;;;;;;11.43;9.02;;;;;;;9.93;24.56;95963.94;4955151;28;20118;-70
2022/03/09 10:04:41;;;;;;;9.45;7.95;;;;;;;10.21;24.05;95999.59;4955176;29;20103;-71
2022/03/09 10:07:08;;;;;;;9.50;7.07;;;;;;;10.66;23.77;96007.16;4955343;28;20442;-73
2022/03/09 10:09:38;;;;;;;9.38;7.55;;;;;;;10.59;23.38;95966.00;4938136;29;20129;-68
2022/03/09 10:12:06;;;;;;;8.13;7.30;;;;;;;10.71;23.90;95955.75;4955222;28;20032;-68
2022/03/09 10:14:53;;;;;;;10.32;7.80;;;;;;;10.98;23.25;95997.75;4938081;29;20026;-70
2022/03/09 10:17:25;;;;;;;8.85;7.95;;;;;;;10.98;23.45;95965.00;4953820;28;20038;-69
2022/03/09 10:19:54;;;;;;;9.32;7.45;;;;;;;11.10;23.52;95976.81;4953720;29;20020;-70
2022/03/09 10:22:27;;;;;;;8.77;7.88;;;;;;;11.03;22.70;96000.34;4937785;29;20039;-70
2022/03/09 10:24:55;;;;;;;10.27;8.55;;;;;;;10.86;23.06;95992.84;4955204;29;20035;-70
2022/03/09 10:27:37;;;;;;;11.50;8.38;;;;;;;10.73;23.13;95903.03;4953420;28;20117;-69
2022/03/09 10:30:06;;;;;;;13.77;8.88;;;;;;;11.16;23.03;95969.56;4954945;29;20035;-68
2022/03/09 10:32:49;;;;;;;10.10;8.70;;;;;;;11.55;23.16;95984.47;4937421;29;20050;-68
2022/03/09 10:35:30;;;;;;;10.68;8.98;;;;;;;11.70;23.35;95998.34;4954678;28;20474;-68
2022/03/09 10:38:00;;;;;;;10.07;9.07;;;;;;;11.61;22.77;95973.44;4955253;28;20061;-69
2022/03/09 10:40:27;;;;;;;11.82;9.88;;;;;;;10.68;22.46;95954.44;4954981;28;20027;-69
2022/03/09 10:43:13;;;;;;;12.18;9.25;;;;;;;11.45;23.45;95983.53;4937736;29;20094;-67
2022/03/09 10:46:02;;;;;;;9.23;8.35;;;;;;;11.76;22.58;95985.75;4954936;29;20473;-70
2022/03/09 10:48:52;;;;;;;9.65;8.65;;;;;;;11.82;21.95;95952.63;4954228;29;20388;-67
2022/03/09 10:51:33;;;;;;;10.25;8.07;;;;;;;11.61;22.68;95954.00;4954425;28;20027;-68
2022/03/09 10:54:00;;;;;;;9.77;8.02;;;;;;;11.78;21.14;95932.16;4954804;28;20027;-68
2022/03/09 10:56:26;;;;;;;10.15;7.60;;;;;;;12.15;20.66;95957.97;4954695;28;20087;-69
2022/03/09 10:58:52;;;;;;;9.43;7.15;;;;;;;11.97;21.36;95935.59;4954390;28;20087;-65
2022/03/09 11:01:18;;;;;;;9.07;8.15;;;;;;;11.88;20.01;95964.00;4954429;28;20106;-66
2022/03/09 11:03:45;;;;;;;10.32;8.27;;;;;;;11.04;20.73;95820.88;4954245;28;20042;-71
2022/03/09 11:06:10;;;;;;;19.23;9.88;;;;;;;12.16;21.27;95956.88;4937235;29;20443;-67
2022/03/09 11:08:38;;;;;;;9.10;8.20;;;;;;;12.56;20.64;95967.88;4954196;29;20055;-68
2022/03/09 11:11:05;;;;;;;14.10;8.23;;;;;;;12.58;20.18;95965.72;4954003;28;20075;-69
2022/03/09 11:13:33;;;;;;;11.18;7.68;;;;;;;12.30;20.91;95971.03;4954392;29;20032;-70
2022/03/09 11:15:59;;;;;;;11.60;7.88;;;;;;;12.35;20.27;95940.81;4954070;29;20035;-71
2022/03/09 11:18:28;;;;;;;11.00;7.55;;;;;;;12.58;19.87;95961.16;4953363;29;20023;-71
2022/03/09 11:20:59;;;;;;;7.38;6.70;;;;;;;12.67;19.77;95972.72;4953956;28;20071;-74
2022/03/09 11:23:27;;;;;;;13.07;6.75;;;;;;;11.06;20.26;95941.22;4954042;28;20039;-74
2022/03/09 11:25:59;;;;;;;8.73;6.90;;;;;;;12.29;19.67;95964.13;4953967;29;20722;-72
2022/03/09 11:28:29;;;;;;;8.80;6.85;;;;;;;12.21;19.54;95927.44;4952647;29;20031;-71